sensor_id;sensor_type;location;lat;lon;timestamp;P1;durP1;ratioP1;P2;durP2;ratioP2
6547;SDS011;3307;52.416;16.862;2023-08-07T00:00:32;2.70;;;2.50;;
6547;SDS011;3307;52.416;16.862;2023-08-07T00:02:57;2.37;;;2.17;;
6547;SDS011;3307;52.416;16.862;2023-08-07T00:05:23;3.13;;;2.20;;
6547;SDS011;3307;52.416;16.862;2023-08-07T00:07:48;2.60;;;2.40;;
6547;SDS011;3307;52.416;16.862;2023-08-07T00:10:14;2.70;;;2.30;;
6547;SDS011;3307;52.416;16.862;2023-08-07T00:12:39;2.67;;;2.47;;
6547;SDS011;3307;52.416;16.862;2023-08-07T00:15:05;3.80;;;2.03;;
6547;SDS011;3307;52.416;16.862;2023-08-07T00:17:31;3.00;;;2.70;;
6547;SDS011;3307;52.416;16.862;2023-08-07T00:19:56;3.13;;;2.30;;
6547;SDS011;3307;52.416;16.862;2023-08-07T00:22:22;3.07;;;2.73;;
6547;SDS011;3307;52.416;16.862;2023-08-07T00:24:48;2.23;;;1.93;;
6547;SDS011;3307;52.416;16.862;2023-08-07T00:27:13;3.63;;;2.50;;
6547;SDS011;3307;52.416;16.862;2023-08-07T00:29:39;2.77;;;2.57;;
6547;SDS011;3307;52.416;16.862;2023-08-07T00:32:04;2.90;;;1.93;;
6547;SDS011;3307;52.416;16.862;2023-08-07T00:34:30;2.30;;;2.10;;
6547;SDS011;3307;52.416;16.862;2023-08-07T00:36:56;3.40;;;2.10;;
6547;SDS011;3307;52.416;16.862;2023-08-07T00:39:21;4.83;;;1.80;;
6547;SDS011;3307;52.416;16.862;2023-08-07T00:41:47;2.73;;;2.00;;
6547;SDS011;3307;52.416;16.862;2023-08-07T00:44:12;2.00;;;1.80;;
6547;SDS011;3307;52.416;16.862;2023-08-07T00:46:38;2.53;;;2.20;;
6547;SDS011;3307;52.416;16.862;2023-08-07T00:49:06;2.22;;;2.05;;
6547;SDS011;3307;52.416;16.862;2023-08-07T00:51:32;2.50;;;2.30;;
6547;SDS011;3307;52.416;16.862;2023-08-07T00:53:58;2.90;;;2.60;;
6547;SDS011;3307;52.416;16.862;2023-08-07T00:56:24;2.87;;;2.50;;
6547;SDS011;3307;52.416;16.862;2023-08-07T00:58:50;2.10;;;1.90;;
6547;SDS011;3307;52.416;16.862;2023-08-07T01:01:15;2.23;;;1.80;;
6547;SDS011;3307;52.416;16.862;2023-08-07T01:03:41;2.53;;;2.33;;
6547;SDS011;3307;52.416;16.862;2023-08-07T01:06:06;2.50;;;2.30;;
6547;SDS011;3307;52.416;16.862;2023-08-07T01:08:32;3.23;;;2.40;;
6547;SDS011;3307;52.416;16.862;2023-08-07T01:11:13;4.73;;;2.13;;
6547;SDS011;3307;52.416;16.862;2023-08-07T01:17:15;2.40;;;2.20;;
6547;SDS011;3307;52.416;16.862;2023-08-07T01:19:41;4.30;;;2.83;;
6547;SDS011;3307;52.416;16.862;2023-08-07T01:24:35;2.25;;;2.05;;
6547;SDS011;3307;52.416;16.862;2023-08-07T01:29:56;2.60;;;2.13;;
6547;SDS011;3307;52.416;16.862;2023-08-07T01:32:47;4.43;;;2.75;;
6547;SDS011;3307;52.416;16.862;2023-08-07T01:35:20;2.58;;;2.35;;
6547;SDS011;3307;52.416;16.862;2023-08-07T01:37:50;2.55;;;2.10;;
6547;SDS011;3307;52.416;16.862;2023-08-07T01:40:16;3.15;;;2.63;;
6547;SDS011;3307;52.416;16.862;2023-08-07T01:42:43;2.10;;;1.90;;
6547;SDS011;3307;52.416;16.862;2023-08-07T01:45:09;3.60;;;2.53;;
6547;SDS011;3307;52.416;16.862;2023-08-07T01:47:35;3.00;;;2.70;;
6547;SDS011;3307;52.416;16.862;2023-08-07T01:50:00;2.20;;;2.00;;
6547;SDS011;3307;52.416;16.862;2023-08-07T01:52:25;2.73;;;2.10;;
6547;SDS011;3307;52.416;16.862;2023-08-07T01:54:51;3.43;;;2.17;;
6547;SDS011;3307;52.416;16.862;2023-08-07T01:57:16;2.90;;;2.27;;
6547;SDS011;3307;52.416;16.862;2023-08-07T01:59:42;2.13;;;2.03;;
6547;SDS011;3307;52.416;16.862;2023-08-07T02:02:08;2.60;;;2.40;;
6547;SDS011;3307;52.416;16.862;2023-08-07T02:04:34;2.63;;;2.37;;
6547;SDS011;3307;52.416;16.862;2023-08-07T02:06:59;3.40;;;2.33;;
6547;SDS011;3307;52.416;16.862;2023-08-07T02:09:25;3.63;;;2.37;;
6547;SDS011;3307;52.416;16.862;2023-08-07T02:11:50;2.30;;;2.10;;
6547;SDS011;3307;52.416;16.862;2023-08-07T02:14:15;2.90;;;2.30;;
6547;SDS011;3307;52.416;16.862;2023-08-07T02:16:41;3.07;;;2.57;;
6547;SDS011;3307;52.416;16.862;2023-08-07T02:19:06;2.70;;;2.40;;
6547;SDS011;3307;52.416;16.862;2023-08-07T02:21:32;3.47;;;2.77;;
6547;SDS011;3307;52.416;16.862;2023-08-07T02:23:57;3.00;;;2.30;;
6547;SDS011;3307;52.416;16.862;2023-08-07T02:26:22;4.90;;;2.80;;
6547;SDS011;3307;52.416;16.862;2023-08-07T02:28:48;3.80;;;2.80;;
6547;SDS011;3307;52.416;16.862;2023-08-07T02:31:13;2.70;;;2.50;;
6547;SDS011;3307;52.416;16.862;2023-08-07T02:33:39;5.10;;;2.43;;
6547;SDS011;3307;52.416;16.862;2023-08-07T02:36:06;4.90;;;2.63;;
6547;SDS011;3307;52.416;16.862;2023-08-07T02:38:31;2.90;;;2.37;;
6547;SDS011;3307;52.416;16.862;2023-08-07T02:40:56;4.97;;;2.70;;
6547;SDS011;3307;52.416;16.862;2023-08-07T02:43:22;5.33;;;2.97;;
6547;SDS011;3307;52.416;16.862;2023-08-07T02:45:47;2.90;;;2.60;;
6547;SDS011;3307;52.416;16.862;2023-08-07T02:48:13;3.00;;;2.50;;
6547;SDS011;3307;52.416;16.862;2023-08-07T02:50:38;4.93;;;2.60;;
6547;SDS011;3307;52.416;16.862;2023-08-07T02:53:04;4.10;;;2.40;;
6547;SDS011;3307;52.416;16.862;2023-08-07T02:55:29;3.60;;;2.90;;
6547;SDS011;3307;52.416;16.862;2023-08-07T02:57:55;4.53;;;2.50;;
6547;SDS011;3307;52.416;16.862;2023-08-07T03:00:20;3.80;;;2.00;;
6547;SDS011;3307;52.416;16.862;2023-08-07T03:02:45;2.93;;;2.50;;
6547;SDS011;3307;52.416;16.862;2023-08-07T03:05:11;3.43;;;2.60;;
6547;SDS011;3307;52.416;16.862;2023-08-07T03:07:36;3.23;;;2.40;;
6547;SDS011;3307;52.416;16.862;2023-08-07T03:10:02;3.00;;;2.20;;
6547;SDS011;3307;52.416;16.862;2023-08-07T03:12:28;3.67;;;2.38;;
6547;SDS011;3307;52.416;16.862;2023-08-07T03:14:54;4.50;;;2.50;;
6547;SDS011;3307;52.416;16.862;2023-08-07T03:17:19;2.90;;;2.37;;
6547;SDS011;3307;52.416;16.862;2023-08-07T03:19:45;2.23;;;2.03;;
6547;SDS011;3307;52.416;16.862;2023-08-07T03:22:11;2.30;;;2.10;;
6547;SDS011;3307;52.416;16.862;2023-08-07T03:24:37;3.23;;;2.00;;
6547;SDS011;3307;52.416;16.862;2023-08-07T03:27:02;3.10;;;2.33;;
6547;SDS011;3307;52.416;16.862;2023-08-07T03:29:28;2.67;;;2.47;;
6547;SDS011;3307;52.416;16.862;2023-08-07T03:31:53;4.10;;;2.40;;
6547;SDS011;3307;52.416;16.862;2023-08-07T03:34:19;3.13;;;2.30;;
6547;SDS011;3307;52.416;16.862;2023-08-07T03:36:44;3.00;;;2.30;;
6547;SDS011;3307;52.416;16.862;2023-08-07T03:39:10;3.40;;;2.20;;
6547;SDS011;3307;52.416;16.862;2023-08-07T03:41:37;4.43;;;1.83;;
6547;SDS011;3307;52.416;16.862;2023-08-07T03:44:02;2.57;;;2.20;;
6547;SDS011;3307;52.416;16.862;2023-08-07T03:46:28;2.70;;;2.50;;
6547;SDS011;3307;52.416;16.862;2023-08-07T03:48:53;3.60;;;2.23;;
6547;SDS011;3307;52.416;16.862;2023-08-07T03:51:18;2.30;;;2.00;;
6547;SDS011;3307;52.416;16.862;2023-08-07T03:53:44;4.53;;;2.80;;
6547;SDS011;3307;52.416;16.862;2023-08-07T03:56:09;6.03;;;2.97;;
6547;SDS011;3307;52.416;16.862;2023-08-07T03:58:35;3.30;;;2.33;;
6547;SDS011;3307;52.416;16.862;2023-08-07T04:01:00;2.50;;;2.20;;
6547;SDS011;3307;52.416;16.862;2023-08-07T04:03:26;5.40;;;2.67;;
6547;SDS011;3307;52.416;16.862;2023-08-07T04:05:52;3.73;;;3.03;;
6547;SDS011;3307;52.416;16.862;2023-08-07T04:08:18;3.13;;;2.45;;
6547;SDS011;3307;52.416;16.862;2023-08-07T04:10:44;2.70;;;2.47;;
6547;SDS011;3307;52.416;16.862;2023-08-07T04:13:10;3.40;;;2.73;;
6547;SDS011;3307;52.416;16.862;2023-08-07T04:15:35;2.83;;;2.53;;
6547;SDS011;3307;52.416;16.862;2023-08-07T04:18:00;3.80;;;3.27;;
6547;SDS011;3307;52.416;16.862;2023-08-07T04:20:26;5.60;;;3.63;;
6547;SDS011;3307;52.416;16.862;2023-08-07T04:22:51;6.37;;;4.67;;
6547;SDS011;3307;52.416;16.862;2023-08-07T04:25:17;4.90;;;3.40;;
6547;SDS011;3307;52.416;16.862;2023-08-07T04:27:42;5.40;;;3.13;;
6547;SDS011;3307;52.416;16.862;2023-08-07T04:30:08;3.17;;;2.90;;
6547;SDS011;3307;52.416;16.862;2023-08-07T04:32:33;4.47;;;3.87;;
6547;SDS011;3307;52.416;16.862;2023-08-07T04:34:59;5.37;;;4.27;;
6547;SDS011;3307;52.416;16.862;2023-08-07T04:37:24;5.10;;;3.77;;
6547;SDS011;3307;52.416;16.862;2023-08-07T04:39:50;5.90;;;4.07;;
6547;SDS011;3307;52.416;16.862;2023-08-07T04:42:15;8.63;;;6.90;;
6547;SDS011;3307;52.416;16.862;2023-08-07T04:44:40;5.17;;;4.13;;
6547;SDS011;3307;52.416;16.862;2023-08-07T04:47:06;7.37;;;5.20;;
6547;SDS011;3307;52.416;16.862;2023-08-07T04:49:31;5.93;;;4.03;;
6547;SDS011;3307;52.416;16.862;2023-08-07T04:51:56;5.33;;;3.53;;
6547;SDS011;3307;52.416;16.862;2023-08-07T04:54:22;3.33;;;2.73;;
6547;SDS011;3307;52.416;16.862;2023-08-07T04:56:47;3.20;;;2.90;;
6547;SDS011;3307;52.416;16.862;2023-08-07T04:59:13;4.87;;;2.80;;
6547;SDS011;3307;52.416;16.862;2023-08-07T05:01:38;5.27;;;4.00;;
6547;SDS011;3307;52.416;16.862;2023-08-07T05:04:04;5.30;;;3.50;;
6547;SDS011;3307;52.416;16.862;2023-08-07T05:06:30;5.65;;;3.95;;
6547;SDS011;3307;52.416;16.862;2023-08-07T05:08:56;3.85;;;2.90;;
6547;SDS011;3307;52.416;16.862;2023-08-07T05:11:21;4.17;;;3.10;;
6547;SDS011;3307;52.416;16.862;2023-08-07T05:13:47;6.73;;;3.33;;
6547;SDS011;3307;52.416;16.862;2023-08-07T05:16:12;4.17;;;3.20;;
6547;SDS011;3307;52.416;16.862;2023-08-07T05:18:38;3.70;;;3.20;;
6547;SDS011;3307;52.416;16.862;2023-08-07T05:21:03;4.43;;;3.10;;
6547;SDS011;3307;52.416;16.862;2023-08-07T05:23:28;3.50;;;3.20;;
6547;SDS011;3307;52.416;16.862;2023-08-07T05:25:54;3.40;;;3.10;;
6547;SDS011;3307;52.416;16.862;2023-08-07T05:28:19;3.10;;;2.83;;
6547;SDS011;3307;52.416;16.862;2023-08-07T05:30:44;3.20;;;2.67;;
6547;SDS011;3307;52.416;16.862;2023-08-07T05:33:10;3.70;;;2.70;;
6547;SDS011;3307;52.416;16.862;2023-08-07T05:35:37;3.53;;;3.20;;
6547;SDS011;3307;52.416;16.862;2023-08-07T05:38:05;5.97;;;3.40;;
6547;SDS011;3307;52.416;16.862;2023-08-07T05:40:31;3.33;;;2.93;;
6547;SDS011;3307;52.416;16.862;2023-08-07T05:42:56;4.70;;;3.10;;
6547;SDS011;3307;52.416;16.862;2023-08-07T05:45:22;6.10;;;4.40;;
6547;SDS011;3307;52.416;16.862;2023-08-07T05:47:47;4.07;;;3.00;;
6547;SDS011;3307;52.416;16.862;2023-08-07T05:50:12;3.03;;;2.73;;
6547;SDS011;3307;52.416;16.862;2023-08-07T05:52:38;3.33;;;3.07;;
6547;SDS011;3307;52.416;16.862;2023-08-07T05:55:03;3.40;;;3.10;;
6547;SDS011;3307;52.416;16.862;2023-08-07T05:57:32;3.07;;;2.73;;
6547;SDS011;3307;52.416;16.862;2023-08-07T05:59:57;3.30;;;2.85;;
6547;SDS011;3307;52.416;16.862;2023-08-07T06:02:22;3.83;;;2.47;;
6547;SDS011;3307;52.416;16.862;2023-08-07T06:04:48;4.47;;;2.63;;
6547;SDS011;3307;52.416;16.862;2023-08-07T06:07:13;3.07;;;2.80;;
6547;SDS011;3307;52.416;16.862;2023-08-07T06:09:39;3.88;;;3.15;;
6547;SDS011;3307;52.416;16.862;2023-08-07T06:12:05;3.73;;;3.20;;
6547;SDS011;3307;52.416;16.862;2023-08-07T06:14:30;2.90;;;2.60;;
6547;SDS011;3307;52.416;16.862;2023-08-07T06:16:56;3.07;;;2.87;;
6547;SDS011;3307;52.416;16.862;2023-08-07T06:19:23;3.55;;;2.55;;
6547;SDS011;3307;52.416;16.862;2023-08-07T06:21:48;2.67;;;2.47;;
6547;SDS011;3307;52.416;16.862;2023-08-07T06:24:14;4.33;;;2.43;;
6547;SDS011;3307;52.416;16.862;2023-08-07T06:26:39;3.37;;;3.07;;
6547;SDS011;3307;52.416;16.862;2023-08-07T06:29:05;5.70;;;2.87;;
6547;SDS011;3307;52.416;16.862;2023-08-07T06:31:30;5.77;;;3.80;;
6547;SDS011;3307;52.416;16.862;2023-08-07T06:33:55;3.90;;;2.57;;
6547;SDS011;3307;52.416;16.862;2023-08-07T06:36:21;3.10;;;2.80;;
6547;SDS011;3307;52.416;16.862;2023-08-07T06:38:46;2.87;;;2.67;;
6547;SDS011;3307;52.416;16.862;2023-08-07T06:41:12;4.50;;;2.83;;
6547;SDS011;3307;52.416;16.862;2023-08-07T06:43:37;3.23;;;2.40;;
6547;SDS011;3307;52.416;16.862;2023-08-07T06:46:03;3.70;;;2.83;;
6547;SDS011;3307;52.416;16.862;2023-08-07T06:48:28;2.93;;;2.60;;
6547;SDS011;3307;52.416;16.862;2023-08-07T06:50:53;4.33;;;2.57;;
6547;SDS011;3307;52.416;16.862;2023-08-07T06:53:19;2.70;;;2.50;;
6547;SDS011;3307;52.416;16.862;2023-08-07T06:55:44;4.00;;;2.77;;
6547;SDS011;3307;52.416;16.862;2023-08-07T06:58:10;3.30;;;2.80;;
6547;SDS011;3307;52.416;16.862;2023-08-07T07:00:36;3.60;;;2.80;;
6547;SDS011;3307;52.416;16.862;2023-08-07T07:03:02;3.00;;;2.70;;
